sensor_id;sensor_type;location;lat;lon;timestamp;pressure;altitude;pressure_sealevel;temperature;humidity
38466;BME280;24244;51.950;5.902;2023-02-28T00:00:19;103079.66;;;2.79;64.94
38466;BME280;24244;51.950;5.902;2023-02-28T00:02:46;103075.31;;;2.78;65.08
38466;BME280;24244;51.950;5.902;2023-02-28T00:05:16;103069.16;;;2.79;64.47
38466;BME280;24244;51.950;5.902;2023-02-28T00:07:44;103071.72;;;2.80;64.88
38466;BME280;24244;51.950;5.902;2023-02-28T00:10:14;103070.72;;;2.83;64.93
38466;BME280;24244;51.950;5.902;2023-02-28T00:12:42;103065.38;;;2.84;64.99
38466;BME280;24244;51.950;5.902;2023-02-28T00:15:10;103068.81;;;2.85;64.54
38466;BME280;24244;51.950;5.902;2023-02-28T00:17:37;103059.09;;;2.87;64.98
38466;BME280;24244;51.950;5.902;2023-02-28T00:20:06;103058.19;;;2.88;64.82
38466;BME280;24244;51.950;5.902;2023-02-28T00:22:39;103064.22;;;2.90;64.61
38466;BME280;24244;51.950;5.902;2023-02-28T00:25:07;103067.59;;;2.92;65.18
38466;BME280;24244;51.950;5.902;2023-02-28T00:27:34;103068.34;;;2.94;64.89
38466;BME280;24244;51.950;5.902;2023-02-28T00:30:02;103061.34;;;2.94;65.11
38466;BME280;24244;51.950;5.902;2023-02-28T00:32:29;103060.34;;;2.97;64.99
38466;BME280;24244;51.950;5.902;2023-02-28T00:34:56;103059.41;;;2.98;65.05
38466;BME280;24244;51.950;5.902;2023-02-28T00:37:23;103062.78;;;3.00;64.95
38466;BME280;24244;51.950;5.902;2023-02-28T00:39:52;103057.53;;;3.00;64.57
38466;BME280;24244;51.950;5.902;2023-02-28T00:42:19;103060.16;;;3.00;65.09
38466;BME280;24244;51.950;5.902;2023-02-28T00:44:45;103061.00;;;3.00;64.92
38466;BME280;24244;51.950;5.902;2023-02-28T00:47:12;103060.09;;;3.01;64.89
38466;BME280;24244;51.950;5.902;2023-02-28T00:49:42;103057.19;;;3.06;64.68
38466;BME280;24244;51.950;5.902;2023-02-28T00:52:09;103050.09;;;3.08;64.67
38466;BME280;24244;51.950;5.902;2023-02-28T00:54:36;103052.56;;;3.11;65.10
38466;BME280;24244;51.950;5.902;2023-02-28T00:57:05;103058.56;;;3.13;64.76
38466;BME280;24244;51.950;5.902;2023-02-28T00:59:32;103058.50;;;3.14;64.61
38466;BME280;24244;51.950;5.902;2023-02-28T01:01:58;103048.84;;;3.15;64.68
38466;BME280;24244;51.950;5.902;2023-02-28T01:04:25;103047.91;;;3.16;64.41
38466;BME280;24244;51.950;5.902;2023-02-28T01:06:52;103053.94;;;3.18;64.85
38466;BME280;24244;51.950;5.902;2023-02-28T01:09:19;103052.91;;;3.21;64.63
38466;BME280;24244;51.950;5.902;2023-02-28T01:11:46;103059.78;;;3.23;64.56
38466;BME280;24244;51.950;5.902;2023-02-28T01:14:16;103043.94;;;3.25;64.96
38466;BME280;24244;51.950;5.902;2023-02-28T01:16:43;103048.16;;;3.27;64.97
38466;BME280;24244;51.950;5.902;2023-02-28T01:19:11;103054.19;;;3.29;64.81
38466;BME280;24244;51.950;5.902;2023-02-28T01:21:39;103054.91;;;3.33;64.98
38466;BME280;24244;51.950;5.902;2023-02-28T01:24:06;103045.13;;;3.35;64.79
38466;BME280;24244;51.950;5.902;2023-02-28T01:26:35;103057.25;;;3.37;65.24
38466;BME280;24244;51.950;5.902;2023-02-28T01:29:02;103065.94;;;3.39;65.18
38466;BME280;24244;51.950;5.902;2023-02-28T01:31:37;103066.66;;;3.41;65.11
38466;BME280;24244;51.950;5.902;2023-02-28T01:34:04;103060.47;;;3.42;65.19
38466;BME280;24244;51.950;5.902;2023-02-28T01:36:31;103062.97;;;3.45;65.32
38466;BME280;24244;51.950;5.902;2023-02-28T01:38:57;103062.03;;;3.46;64.89
38466;BME280;24244;51.950;5.902;2023-02-28T01:41:27;103063.63;;;3.49;65.07
38466;BME280;24244;51.950;5.902;2023-02-28T01:44:00;103057.44;;;3.50;65.15
38466;BME280;24244;51.950;5.902;2023-02-28T01:46:31;103059.13;;;3.51;65.48
38466;BME280;24244;51.950;5.902;2023-02-28T01:49:04;103060.84;;;3.52;64.81
38466;BME280;24244;51.950;5.902;2023-02-28T01:51:37;103045.91;;;3.52;65.17
38466;BME280;24244;51.950;5.902;2023-02-28T01:54:09;103049.41;;;3.53;64.92
38466;BME280;24244;51.950;5.902;2023-02-28T01:56:43;103045.00;;;3.53;65.49
38466;BME280;24244;51.950;5.902;2023-02-28T01:59:13;103043.22;;;3.54;65.57
38466;BME280;24244;51.950;5.902;2023-02-28T02:01:43;103049.22;;;3.56;65.08
38466;BME280;24244;51.950;5.902;2023-02-28T02:04:12;103049.13;;;3.58;65.34
38466;BME280;24244;51.950;5.902;2023-02-28T02:06:43;103053.47;;;3.59;64.94
38466;BME280;24244;51.950;5.902;2023-02-28T02:09:11;103044.66;;;3.60;65.44
38466;BME280;24244;51.950;5.902;2023-02-28T02:11:39;103044.66;;;3.60;65.16
38466;BME280;24244;51.950;5.902;2023-02-28T02:17:07;103043.78;;;3.59;65.50
38466;BME280;24244;51.950;5.902;2023-02-28T02:22:45;103048.13;;;3.60;65.59
38466;BME280;24244;51.950;5.902;2023-02-28T02:25:25;103055.16;;;3.60;65.53
38466;BME280;24244;51.950;5.902;2023-02-28T02:34:24;103047.34;;;3.58;65.30
38466;BME280;24244;51.950;5.902;2023-02-28T02:36:59;103050.06;;;3.57;65.71
38466;BME280;24244;51.950;5.902;2023-02-28T02:39:32;103056.25;;;3.55;65.48
38466;BME280;24244;51.950;5.902;2023-02-28T02:42:09;103052.69;;;3.57;65.43
38466;BME280;24244;51.950;5.902;2023-02-28T02:44:40;103057.09;;;3.56;65.40
38466;BME280;24244;51.950;5.902;2023-02-28T02:47:12;103047.63;;;3.53;65.59
38466;BME280;24244;51.950;5.902;2023-02-28T02:49:46;103053.72;;;3.54;65.38
38466;BME280;24244;51.950;5.902;2023-02-28T02:52:18;103055.59;;;3.52;65.23
38466;BME280;24244;51.950;5.902;2023-02-28T02:54:49;103054.81;;;3.50;65.21
38466;BME280;24244;51.950;5.902;2023-02-28T02:57:24;103055.66;;;3.50;65.45
38466;BME280;24244;51.950;5.902;2023-02-28T02:59:55;103048.53;;;3.52;65.60
38466;BME280;24244;51.950;5.902;2023-02-28T03:02:23;103056.44;;;3.52;65.22
38466;BME280;24244;51.950;5.902;2023-02-28T03:04:58;103062.63;;;3.51;65.56
38466;BME280;24244;51.950;5.902;2023-02-28T03:07:27;103063.47;;;3.52;65.05
38466;BME280;24244;51.950;5.902;2023-02-28T03:09:56;103059.91;;;3.53;65.25
38466;BME280;24244;51.950;5.902;2023-02-28T03:12:27;103064.25;;;3.54;65.32
38466;BME280;24244;51.950;5.902;2023-02-28T03:15:08;103069.41;;;3.55;64.94
38466;BME280;24244;51.950;5.902;2023-02-28T03:17:49;103066.75;;;3.55;65.19
38466;BME280;24244;51.950;5.902;2023-02-28T03:20:31;103057.22;;;3.54;65.23
38466;BME280;24244;51.950;5.902;2023-02-28T03:23:07;103058.06;;;3.55;65.14
38466;BME280;24244;51.950;5.902;2023-02-28T03:25:45;103057.22;;;3.54;64.66
38466;BME280;24244;51.950;5.902;2023-02-28T03:28:25;103064.25;;;3.54;64.92
38466;BME280;24244;51.950;5.902;2023-02-28T03:30:59;103060.75;;;3.53;65.14
38466;BME280;24244;51.950;5.902;2023-02-28T03:33:30;103059.91;;;3.53;65.23
38466;BME280;24244;51.950;5.902;2023-02-28T03:36:02;103057.28;;;3.53;65.20
38466;BME280;24244;51.950;5.902;2023-02-28T03:38:34;103058.06;;;3.55;64.76
38466;BME280;24244;51.950;5.902;2023-02-28T03:41:07;103053.53;;;3.57;64.96
38466;BME280;24244;51.950;5.902;2023-02-28T03:43:40;103060.56;;;3.57;65.21
38466;BME280;24244;51.950;5.902;2023-02-28T03:46:12;103050.16;;;3.55;65.05
38466;BME280;24244;51.950;5.902;2023-02-28T03:48:45;103052.94;;;3.52;65.18
38466;BME280;24244;51.950;5.902;2023-02-28T03:51:18;103054.81;;;3.50;64.75
38466;BME280;24244;51.950;5.902;2023-02-28T03:53:49;103059.13;;;3.51;64.69
38466;BME280;24244;51.950;5.902;2023-02-28T03:56:20;103062.78;;;3.48;64.80
38466;BME280;24244;51.950;5.902;2023-02-28T03:58:53;103052.25;;;3.48;64.19
38466;BME280;24244;51.950;5.902;2023-02-28T04:01:25;103057.44;;;3.50;64.48
38466;BME280;24244;51.950;5.902;2023-02-28T04:03:54;103050.31;;;3.52;64.70
38466;BME280;24244;51.950;5.902;2023-02-28T04:06:23;103051.09;;;3.54;64.57
38466;BME280;24244;51.950;5.902;2023-02-28T04:08:51;103046.69;;;3.54;64.37
38466;BME280;24244;51.950;5.902;2023-02-28T04:11:22;103050.06;;;3.57;64.45
38466;BME280;24244;51.950;5.902;2023-02-28T04:13:50;103041.44;;;3.54;64.64
38466;BME280;24244;51.950;5.902;2023-02-28T04:16:17;103047.53;;;3.55;64.67
38466;BME280;24244;51.950;5.902;2023-02-28T04:19:00;103044.81;;;3.57;64.30
38466;BME280;24244;51.950;5.902;2023-02-28T04:21:34;103046.56;;;3.56;64.38
38466;BME280;24244;51.950;5.902;2023-02-28T04:24:03;103044.81;;;3.57;64.08
38466;BME280;24244;51.950;5.902;2023-02-28T04:26:31;103042.16;;;3.57;64.35
38466;BME280;24244;51.950;5.902;2023-02-28T04:29:00;103055.25;;;3.58;64.31
38466;BME280;24244;51.950;5.902;2023-02-28T04:31:27;103045.56;;;3.59;64.36
38466;BME280;24244;51.950;5.902;2023-02-28T04:33:56;103046.41;;;3.59;64.09
38466;BME280;24244;51.950;5.902;2023-02-28T04:36:23;103039.38;;;3.60;64.42
38466;BME280;24244;51.950;5.902;2023-02-28T04:38:51;103040.31;;;3.59;64.02
38466;BME280;24244;51.950;5.902;2023-02-28T04:41:19;103041.16;;;3.59;64.11
38466;BME280;24244;51.950;5.902;2023-02-28T04:43:47;103049.91;;;3.60;64.42
38466;BME280;24244;51.950;5.902;2023-02-28T04:46:14;103041.09;;;3.61;64.30
38466;BME280;24244;51.950;5.902;2023-02-28T04:48:43;103056.00;;;3.60;64.23
38466;BME280;24244;51.950;5.902;2023-02-28T04:51:13;103048.19;;;3.59;64.32
38466;BME280;24244;51.950;5.902;2023-02-28T04:53:41;103044.66;;;3.60;63.98
38466;BME280;24244;51.950;5.902;2023-02-28T04:56:12;103046.41;;;3.59;63.88
38466;BME280;24244;51.950;5.902;2023-02-28T04:58:40;103043.72;;;3.61;64.08
38466;BME280;24244;51.950;5.902;2023-02-28T05:01:17;103048.97;;;3.61;63.90
38466;BME280;24244;51.950;5.902;2023-02-28T05:03:48;103045.50;;;3.60;64.29
38466;BME280;24244;51.950;5.902;2023-02-28T05:06:15;103048.19;;;3.59;63.76
38466;BME280;24244;51.950;5.902;2023-02-28T05:08:43;103049.13;;;3.58;63.57
38466;BME280;24244;51.950;5.902;2023-02-28T05:11:16;103054.56;;;3.54;63.72
38466;BME280;24244;51.950;5.902;2023-02-28T05:13:44;103047.63;;;3.53;63.85
38466;BME280;24244;51.950;5.902;2023-02-28T05:16:11;103053.81;;;3.52;63.86
38466;BME280;24244;51.950;5.902;2023-02-28T05:18:38;103052.03;;;3.53;63.62
38466;BME280;24244;51.950;5.902;2023-02-28T05:21:05;103057.22;;;3.54;63.74
38466;BME280;24244;51.950;5.902;2023-02-28T05:23:32;103057.22;;;3.54;63.57
38466;BME280;24244;51.950;5.902;2023-02-28T05:25:59;103051.84;;;3.56;63.61
38466;BME280;24244;51.950;5.902;2023-02-28T05:28:29;103054.38;;;3.58;63.88
38466;BME280;24244;51.950;5.902;2023-02-28T05:30:57;103053.47;;;3.59;63.63
38466;BME280;24244;51.950;5.902;2023-02-28T05:33:24;103056.00;;;3.60;63.77
38466;BME280;24244;51.950;5.902;2023-02-28T05:35:51;103060.41;;;3.60;63.70
38466;BME280;24244;51.950;5.902;2023-02-28T05:38:18;103055.16;;;3.60;63.87
38466;BME280;24244;51.950;5.902;2023-02-28T05:40:45;103064.81;;;3.59;63.65
38466;BME280;24244;51.950;5.902;2023-02-28T05:43:12;103059.66;;;3.58;63.67
38466;BME280;24244;51.950;5.902;2023-02-28T05:45:40;103061.44;;;3.57;63.44
38466;BME280;24244;51.950;5.902;2023-02-28T05:48:08;103062.28;;;3.58;63.48
38466;BME280;24244;51.950;5.902;2023-02-28T05:50:35;103076.34;;;3.57;63.76
38466;BME280;24244;51.950;5.902;2023-02-28T05:53:03;103074.66;;;3.55;63.86
38466;BME280;24244;51.950;5.902;2023-02-28T05:55:30;103065.09;;;3.54;63.63
38466;BME280;24244;51.950;5.902;2023-02-28T05:57:57;103051.00;;;3.55;63.75
38466;BME280;24244;51.950;5.902;2023-02-28T06:00:24;103059.72;;;3.56;63.81
38466;BME280;24244;51.950;5.902;2023-02-28T06:02:53;103078.25;;;3.54;63.89
38466;BME280;24244;51.950;5.902;2023-02-28T06:05:23;103070.34;;;3.54;63.76
38466;BME280;24244;51.950;5.902;2023-02-28T06:07:50;103067.63;;;3.56;63.71
38466;BME280;24244;51.950;5.902;2023-02-28T06:10:17;103066.75;;;3.55;63.52
38466;BME280;24244;51.950;5.902;2023-02-28T06:12:44;103064.91;;;3.58;63.74
38466;BME280;24244;51.950;5.902;2023-02-28T06:15:12;103057.78;;;3.60;63.88
38466;BME280;24244;51.950;5.902;2023-02-28T06:17:40;103078.91;;;3.58;63.71
38466;BME280;24244;51.950;5.902;2023-02-28T06:20:10;103089.44;;;3.58;64.06
38466;BME280;24244;51.950;5.902;2023-02-28T06:22:39;103082.38;;;3.59;63.83
38466;BME280;24244;51.950;5.902;2023-02-28T06:25:07;103077.13;;;3.59;64.02
38466;BME280;24244;51.950;5.902;2023-02-28T06:27:34;103081.47;;;3.60;64.06
38466;BME280;24244;51.950;5.902;2023-02-28T06:30:02;103094.59;;;3.60;64.17
38466;BME280;24244;51.950;5.902;2023-02-28T06:32:29;103084.16;;;3.58;63.88
38466;BME280;24244;51.950;5.902;2023-02-28T06:34:55;103088.50;;;3.59;63.61
38466;BME280;24244;51.950;5.902;2023-02-28T06:37:25;103092.91;;;3.59;63.88
38466;BME280;24244;51.950;5.902;2023-02-28T06:39:54;103102.56;;;3.58;63.73
38466;BME280;24244;51.950;5.902;2023-02-28T06:42:30;103094.69;;;3.58;63.82
38466;BME280;24244;51.950;5.902;2023-02-28T06:44:57;103094.88;;;3.55;63.80
38466;BME280;24244;51.950;5.902;2023-02-28T06:47:25;103092.31;;;3.53;64.16
38466;BME280;24244;51.950;5.902;2023-02-28T06:49:52;103103.69;;;3.54;64.26
38466;BME280;24244;51.950;5.902;2023-02-28T06:52:18;103108.94;;;3.54;63.89
38466;BME280;24244;51.950;5.902;2023-02-28T06:54:47;103115.06;;;3.54;64.05
38466;BME280;24244;51.950;5.902;2023-02-28T06:57:13;103108.84;;;3.55;63.83
38466;BME280;24244;51.950;5.902;2023-02-28T06:59:40;103114.09;;;3.55;63.82
38466;BME280;24244;51.950;5.902;2023-02-28T07:02:08;103125.47;;;3.56;63.90
38466;BME280;24244;51.950;5.902;2023-02-28T07:04:34;103114.09;;;3.55;64.12
38466;BME280;24244;51.950;5.902;2023-02-28T07:07:01;103115.97;;;3.53;63.84
38466;BME280;24244;51.950;5.902;2023-02-28T07:09:28;103121.38;;;3.50;63.97
38466;BME280;24244;51.950;5.902;2023-02-28T07:11:57;103117.84;;;3.51;63.79
38466;BME280;24244;51.950;5.902;2023-02-28T07:14:24;103125.72;;;3.51;63.90
38466;BME280;24244;51.950;5.902;2023-02-28T07:16:53;103124.72;;;3.54;63.73
38466;BME280;24244;51.950;5.902;2023-02-28T07:19:25;103125.38;;;3.58;63.75
38466;BME280;24244;51.950;5.902;2023-02-28T07:21:52;103117.56;;;3.56;63.58
38466;BME280;24244;51.950;5.902;2023-02-28T07:24:19;103126.50;;;3.53;63.75
38466;BME280;24244;51.950;5.902;2023-02-28T07:26:46;103128.19;;;3.54;63.32
38466;BME280;24244;51.950;5.902;2023-02-28T07:29:14;103125.56;;;3.54;63.85
38466;BME280;24244;51.950;5.902;2023-02-28T07:31:40;103122.94;;;3.54;63.36
38466;BME280;24244;51.950;5.902;2023-02-28T07:34:07;103125.56;;;3.54;63.72
38466;BME280;24244;51.950;5.902;2023-02-28T07:36:34;103129.97;;;3.54;63.43
38466;BME280;24244;51.950;5.902;2023-02-28T07:39:03;103137.00;;;3.53;63.68
38466;BME280;24244;51.950;5.902;2023-02-28T07:41:30;103136.09;;;3.54;63.30
38466;BME280;24244;51.950;5.902;2023-02-28T07:44:02;103138.78;;;3.53;63.70
38466;BME280;24244;51.950;5.902;2023-02-28T07:46:31;103131.75;;;3.53;63.39
38466;BME280;24244;51.950;5.902;2023-02-28T07:49:06;103137.09;;;3.52;63.28
38466;BME280;24244;51.950;5.902;2023-02-28T07:51:33;103138.00;;;3.51;63.48
38466;BME280;24244;51.950;5.902;2023-02-28T07:53:59;103137.94;;;3.52;63.49
38466;BME280;24244;51.950;5.902;2023-02-28T07:56:27;103138.88;;;3.51;63.54
38466;BME280;24244;51.950;5.902;2023-02-28T07:58:54;103136.25;;;3.51;63.46
38466;BME280;24244;51.950;5.902;2023-02-28T08:01:21;103139.78;;;3.50;63.48
38466;BME280;24244;51.950;5.902;2023-02-28T08:03:50;103138.94;;;3.50;63.31
38466;BME280;24244;51.950;5.902;2023-02-28T08:06:18;103145.06;;;3.50;63.36
38466;BME280;24244;51.950;5.902;2023-02-28T08:08:46;103145.91;;;3.51;63.63
38466;BME280;24244;51.950;5.902;2023-02-28T08:11:13;103145.91;;;3.51;63.17
38466;BME280;24244;51.950;5.902;2023-02-28T08:13:40;103148.38;;;3.54;63.42
38466;BME280;24244;51.950;5.902;2023-02-28T08:16:11;103150.22;;;3.52;63.12
38466;BME280;24244;51.950;5.902;2023-02-28T08:18:38;103154.50;;;3.54;62.94
38466;BME280;24244;51.950;5.902;2023-02-28T08:21:10;103154.56;;;3.53;63.06
38466;BME280;24244;51.950;5.902;2023-02-28T08:23:37;103153.72;;;3.52;63.20
38466;BME280;24244;51.950;5.902;2023-02-28T08:26:04;103151.75;;;3.56;62.94
38466;BME280;24244;51.950;5.902;2023-02-28T08:28:31;103149.13;;;3.56;62.62
38466;BME280;24244;51.950;5.902;2023-02-28T08:30:58;103144.72;;;3.57;62.44
38466;BME280;24244;51.950;5.902;2023-02-28T08:33:27;103139.47;;;3.57;62.30
38466;BME280;24244;51.950;5.902;2023-02-28T08:35:54;103149.06;;;3.58;62.46
38466;BME280;24244;51.950;5.902;2023-02-28T08:38:23;103144.72;;;3.57;61.51
38466;BME280;24244;51.950;5.902;2023-02-28T08:40:50;103144.72;;;3.57;61.51
38466;BME280;24244;51.950;5.902;2023-02-28T08:43:17;103147.47;;;3.55;61.36
38466;BME280;24244;51.950;5.902;2023-02-28T08:45:43;103152.59;;;3.57;61.18
38466;BME280;24244;51.950;5.902;2023-02-28T08:48:10;103153.47;;;3.57;61.18
38466;BME280;24244;51.950;5.902;2023-02-28T08:50:37;103147.47;;;3.55;60.54
38466;BME280;24244;51.950;5.902;2023-02-28T08:53:04;103147.34;;;3.57;60.69
38466;BME280;24244;51.950;5.902;2023-02-28T08:55:32;103149.81;;;3.60;60.51
38466;BME280;24244;51.950;5.902;2023-02-28T08:57:59;103138.31;;;3.62;60.90
38466;BME280;24244;51.950;5.902;2023-02-28T09:00:28;103149.50;;;3.66;60.60
38466;BME280;24244;51.950;5.902;2023-02-28T09:02:54;103146.72;;;3.69;60.21
38466;BME280;24244;51.950;5.902;2023-02-28T09:05:21;103138.81;;;3.69;59.54
38466;BME280;24244;51.950;5.902;2023-02-28T09:07:49;103140.50;;;3.70;59.73
38466;BME280;24244;51.950;5.902;2023-02-28T09:10:16;103144.66;;;3.74;59.09
38466;BME280;24244;51.950;5.902;2023-02-28T09:12:44;103147.22;;;3.75;58.75
38466;BME280;24244;51.950;5.902;2023-02-28T09:15:13;103152.38;;;3.77;58.50
38466;BME280;24244;51.950;5.902;2023-02-28T09:17:40;103154.69;;;3.83;58.24
38466;BME280;24244;51.950;5.902;2023-02-28T09:20:09;103148.41;;;3.85;57.33
38466;BME280;24244;51.950;5.902;2023-02-28T09:22:36;103145.63;;;3.88;57.90
38466;BME280;24244;51.950;5.902;2023-02-28T09:25:03;103146.19;;;3.93;57.73
38466;BME280;24244;51.950;5.902;2023-02-28T09:27:30;103147.75;;;3.98;57.72
38466;BME280;24244;51.950;5.902;2023-02-28T09:29:58;103152.75;;;4.02;57.73
38466;BME280;24244;51.950;5.902;2023-02-28T09:32:24;103150.88;;;4.04;57.81
38466;BME280;24244;51.950;5.902;2023-02-28T09:34:51;103151.63;;;4.06;57.93
38466;BME280;24244;51.950;5.902;2023-02-28T09:37:18;103148.00;;;4.09;57.22
38466;BME280;24244;51.950;5.902;2023-02-28T09:39:45;103150.63;;;4.09;57.08
38466;BME280;24244;51.950;5.902;2023-02-28T09:42:19;103144.34;;;4.11;57.17
38466;BME280;24244;51.950;5.902;2023-02-28T09:44:48;103145.00;;;4.15;57.29
38466;BME280;24244;51.950;5.902;2023-02-28T09:47:25;103137.03;;;4.16;56.93
38466;BME280;24244;51.950;5.902;2023-02-28T09:49:54;103138.53;;;4.20;56.67
38466;BME280;24244;51.950;5.902;2023-02-28T09:52:26;103136.53;;;4.25;56.70
38466;BME280;24244;51.950;5.902;2023-02-28T09:54:55;103142.38;;;4.30;57.18
38466;BME280;24244;51.950;5.902;2023-02-28T09:57:32;103139.47;;;4.35;57.39
38466;BME280;24244;51.950;5.902;2023-02-28T10:00:06;103131.41;;;4.38;56.84
38466;BME280;24244;51.950;5.902;2023-02-28T10:02:49;103133.00;;;4.41;56.59
38466;BME280;24244;51.950;5.902;2023-02-28T10:05:20;103138.94;;;4.44;56.10
38466;BME280;24244;51.950;5.902;2023-02-28T10:08:00;103137.81;;;4.48;56.57
38466;BME280;24244;51.950;5.902;2023-02-28T10:10:35;103133.25;;;4.52;56.56
38466;BME280;24244;51.950;5.902;2023-02-28T10:13:14;103137.38;;;4.56;56.76
38466;BME280;24244;51.950;5.902;2023-02-28T10:15:44;103133.72;;;4.58;56.20
38466;BME280;24244;51.950;5.902;2023-02-28T10:18:18;103137.00;;;4.62;55.69
38466;BME280;24244;51.950;5.902;2023-02-28T10:20:49;103122.91;;;4.63;55.64
38466;BME280;24244;51.950;5.902;2023-02-28T10:23:20;103129.72;;;4.67;55.65
38466;BME280;24244;51.950;5.902;2023-02-28T10:25:52;103125.00;;;4.72;55.60
38466;BME280;24244;51.950;5.902;2023-02-28T10:28:20;103126.63;;;4.75;55.84
38466;BME280;24244;51.950;5.902;2023-02-28T10:30:49;103122.88;;;4.79;55.64
38466;BME280;24244;51.950;5.902;2023-02-28T10:33:22;103127.13;;;4.81;55.49
38466;BME280;24244;51.950;5.902;2023-02-28T10:35:50;103122.50;;;4.85;55.39
38466;BME280;24244;51.950;5.902;2023-02-28T10:38:24;103120.47;;;4.90;55.61
38466;BME280;24244;51.950;5.902;2023-02-28T10:40:51;103124.50;;;4.95;55.11
38466;BME280;24244;51.950;5.902;2023-02-28T10:43:29;103111.97;;;4.99;55.59
38466;BME280;24244;51.950;5.902;2023-02-28T10:45:59;103117.94;;;5.02;54.84
38466;BME280;24244;51.950;5.902;2023-02-28T10:48:34;103108.88;;;5.06;54.49
38466;BME280;24244;51.950;5.902;2023-02-28T10:51:04;103101.75;;;5.08;53.97
38466;BME280;24244;51.950;5.902;2023-02-28T10:53:37;103118.97;;;5.14;54.25
38466;BME280;24244;51.950;5.902;2023-02-28T10:56:24;103101.28;;;5.16;54.03
38466;BME280;24244;51.950;5.902;2023-02-28T10:58:54;103107.09;;;5.21;53.98
38466;BME280;24244;51.950;5.902;2023-02-28T11:01:25;103109.38;;;5.27;54.72
38466;BME280;24244;51.950;5.902;2023-02-28T11:04:02;103105.53;;;5.33;53.37
38466;BME280;24244;51.950;5.902;2023-02-28T11:06:31;103097.41;;;5.36;53.65
38466;BME280;24244;51.950;5.902;2023-02-28T11:08:59;103103.34;;;5.39;53.66
38466;BME280;24244;51.950;5.902;2023-02-28T11:11:28;103106.63;;;5.43;53.62
38466;BME280;24244;51.950;5.902;2023-02-28T11:14:03;103103.59;;;5.49;53.66
38466;BME280;24244;51.950;5.902;2023-02-28T11:16:32;103098.16;;;5.52;53.20
38466;BME280;24244;51.950;5.902;2023-02-28T11:19:00;103092.66;;;5.55;53.70
38466;BME280;24244;51.950;5.902;2023-02-28T11:21:30;103091.56;;;5.59;53.62
38466;BME280;24244;51.950;5.902;2023-02-28T11:24:02;103087.03;;;5.61;53.64
38466;BME280;24244;51.950;5.902;2023-02-28T11:26:39;103084.94;;;5.66;53.23
38466;BME280;24244;51.950;5.902;2023-02-28T11:29:11;103094.44;;;5.69;53.00
38466;BME280;24244;51.950;5.902;2023-02-28T11:31:38;103087.38;;;5.69;52.77
38466;BME280;24244;51.950;5.902;2023-02-28T11:34:22;103081.91;;;5.72;53.16
38466;BME280;24244;51.950;5.902;2023-02-28T11:36:50;103083.53;;;5.75;52.51
38466;BME280;24244;51.950;5.902;2023-02-28T11:39:18;103080.66;;;5.78;52.56
38466;BME280;24244;51.950;5.902;2023-02-28T11:41:57;103078.78;;;5.80;51.62
38466;BME280;24244;51.950;5.902;2023-02-28T11:44:38;103081.97;;;5.85;52.37
38466;BME280;24244;51.950;5.902;2023-02-28T11:47:11;103078.97;;;5.91;52.32
38466;BME280;24244;51.950;5.902;2023-02-28T11:49:47;103078.78;;;5.94;51.29
38466;BME280;24244;51.950;5.902;2023-02-28T11:52:28;103073.41;;;5.96;51.07
38466;BME280;24244;51.950;5.902;2023-02-28T11:55:03;103074.13;;;5.98;48.95
38466;BME280;24244;51.950;5.902;2023-02-28T11:57:49;103067.91;;;5.99;50.14
38466;BME280;24244;51.950;5.902;2023-02-28T12:00:39;103068.47;;;6.04;50.49
38466;BME280;24244;51.950;5.902;2023-02-28T12:03:17;103068.06;;;6.10;51.18
38466;BME280;24244;51.950;5.902;2023-02-28T12:05:56;103055.41;;;6.15;51.12
38466;BME280;24244;51.950;5.902;2023-02-28T12:08:44;103072.72;;;6.19;50.06
38466;BME280;24244;51.950;5.902;2023-02-28T12:11:19;103056.78;;;6.20;50.55
38466;BME280;24244;51.950;5.902;2023-02-28T12:14:03;103053.88;;;6.25;50.53
38466;BME280;24244;51.950;5.902;2023-02-28T12:16:47;103054.50;;;6.28;50.67
38466;BME280;24244;51.950;5.902;2023-02-28T12:19:20;103043.59;;;6.33;50.33
38466;BME280;24244;51.950;5.902;2023-02-28T12:22:00;103038.13;;;6.36;50.20
38466;BME280;24244;51.950;5.902;2023-02-28T12:27:43;103041.09;;;6.44;49.67
38466;BME280;24244;51.950;5.902;2023-02-28T12:30:16;103034.88;;;6.45;50.32
38466;BME280;24244;51.950;5.902;2023-02-28T12:32:47;103037.19;;;6.50;50.16
38466;BME280;24244;51.950;5.902;2023-02-28T12:35:19;103024.50;;;6.55;49.49
38466;BME280;24244;51.950;5.902;2023-02-28T12:37:52;103032.34;;;6.56;48.92
38466;BME280;24244;51.950;5.902;2023-02-28T12:40:25;103033.84;;;6.60;49.71
38466;BME280;24244;51.950;5.902;2023-02-28T12:42:58;103018.72;;;6.62;49.77
38466;BME280;24244;51.950;5.902;2023-02-28T12:45:31;103018.50;;;6.65;48.85
38466;BME280;24244;51.950;5.902;2023-02-28T12:48:08;103021.91;;;6.67;49.19
38466;BME280;24244;51.950;5.902;2023-02-28T12:50:37;103007.72;;;6.68;48.69
38466;BME280;24244;51.950;5.902;2023-02-28T12:53:07;103013.75;;;6.71;48.73
38466;BME280;24244;51.950;5.902;2023-02-28T12:55:41;102996.75;;;6.75;49.06
38466;BME280;24244;51.950;5.902;2023-02-28T12:58:16;103000.94;;;6.77;49.00
38466;BME280;24244;51.950;5.902;2023-02-28T13:01:03;103003.50;;;6.79;49.24
38466;BME280;24244;51.950;5.902;2023-02-28T13:03:45;103002.44;;;6.81;48.84
38466;BME280;24244;51.950;5.902;2023-02-28T13:06:34;102997.16;;;6.81;48.98
38466;BME280;24244;51.950;5.902;2023-02-28T13:09:11;102993.44;;;6.84;49.01
38466;BME280;24244;51.950;5.902;2023-02-28T13:11:40;102992.28;;;6.88;49.44
38466;BME280;24244;51.950;5.902;2023-02-28T13:14:21;102989.66;;;6.88;49.31
38466;BME280;24244;51.950;5.902;2023-02-28T13:16:58;102991.09;;;6.92;49.30
38466;BME280;24244;51.950;5.902;2023-02-28T13:19:28;102979.59;;;6.93;49.13
38466;BME280;24244;51.950;5.902;2023-02-28T13:21:57;102989.94;;;6.96;49.16
38466;BME280;24244;51.950;5.902;2023-02-28T13:24:43;102975.75;;;6.97;49.16
38466;BME280;24244;51.950;5.902;2023-02-28T13:27:32;102980.84;;;7.00;49.28
38466;BME280;24244;51.950;5.902;2023-02-28T13:30:01;102978.09;;;7.01;49.10
38466;BME280;24244;51.950;5.902;2023-02-28T13:33:23;102975.56;;;7.00;48.34